createdAt,value
2023-02-19T00:03:57.688Z,10.76
2023-02-19T00:08:14.052Z,11.10
2023-02-19T00:12:30.300Z,10.95
2023-02-19T00:16:47.290Z,11.28
2023-02-19T00:21:04.261Z,11.45
2023-02-19T00:25:20.462Z,11.70
2023-02-19T00:29:36.712Z,11.44
2023-02-19T00:33:55.335Z,11.73
2023-02-19T00:38:11.554Z,11.49
2023-02-19T00:42:27.849Z,11.39
2023-02-19T00:46:46.302Z,11.52
2023-02-19T00:51:02.614Z,11.50
2023-02-19T00:55:18.879Z,11.56
2023-02-19T00:59:37.047Z,11.36
2023-02-19T01:03:53.495Z,11.39
2023-02-19T01:08:09.752Z,11.27
2023-02-19T01:12:26.105Z,11.28
2023-02-19T01:16:42.315Z,10.95
2023-02-19T01:20:58.622Z,11.25
2023-02-19T01:25:14.927Z,11.13
2023-02-19T01:29:31.267Z,10.95
2023-02-19T01:33:49.589Z,11.29
2023-02-19T01:38:07.619Z,11.28
2023-02-19T01:42:23.901Z,11.10
2023-02-19T01:46:44.775Z,10.68
2023-02-19T01:51:07.619Z,11.19
2023-02-19T01:55:24.187Z,11.22
2023-02-19T01:59:41.202Z,11.15
2023-02-19T02:03:57.706Z,11.05
2023-02-19T02:08:33.353Z,10.42
2023-02-19T02:12:56.650Z,10.67
2023-02-19T02:17:18.736Z,10.51
2023-02-19T02:22:04.403Z,11.08
2023-02-19T02:26:26.784Z,11.14
2023-02-19T02:30:46.545Z,11.32
2023-02-19T02:35:10.056Z,11.42
2023-02-19T02:39:27.451Z,11.12
2023-02-19T02:43:43.741Z,11.27
2023-02-19T02:48:00.779Z,11.20
2023-02-19T02:52:39.842Z,11.34
2023-02-19T02:56:56.970Z,10.93
2023-02-19T03:01:59.615Z,10.84
2023-02-19T03:06:19.796Z,10.92
2023-02-19T03:10:47.093Z,10.51
2023-02-19T03:15:28.877Z,11.06
2023-02-19T03:19:50.044Z,10.79
2023-02-19T03:24:27.454Z,10.60
2023-02-19T03:29:04.459Z,10.73
2023-02-19T03:33:26.467Z,10.80
2023-02-19T03:38:03.827Z,10.50
2023-02-19T03:42:43.738Z,10.50
2023-02-19T03:47:10.660Z,10.53
2023-02-19T03:51:47.134Z,10.63
2023-02-19T03:56:23.171Z,10.97
2023-02-19T04:00:44.141Z,11.26
2023-02-19T04:05:08.579Z,11.11
2023-02-19T04:09:30.283Z,10.94
2023-02-19T04:13:59.089Z,10.52
2023-02-19T04:18:21.761Z,10.80
2023-02-19T04:22:39.489Z,10.27
2023-02-19T04:26:56.257Z,10.76
2023-02-19T04:31:13.151Z,10.81
2023-02-19T04:35:29.770Z,10.94
2023-02-19T04:39:46.131Z,10.95
2023-02-19T04:44:02.427Z,10.42
2023-02-19T04:48:18.766Z,10.26
2023-02-19T04:52:35.669Z,10.68
2023-02-19T04:56:52.076Z,10.45
2023-02-19T05:01:09.483Z,9.77
2023-02-19T05:05:26.176Z,9.80
2023-02-19T05:09:42.445Z,9.94
2023-02-19T05:13:58.932Z,9.91
2023-02-19T05:18:15.166Z,9.85
2023-02-19T05:22:31.496Z,9.87
2023-02-19T05:26:48.650Z,10.08
2023-02-19T05:31:07.644Z,10.41
2023-02-19T05:35:23.887Z,10.72
2023-02-19T05:39:40.270Z,10.76
2023-02-19T05:43:57.382Z,10.35
2023-02-19T05:48:13.811Z,11.07
2023-02-19T05:52:30.061Z,10.94
2023-02-19T05:56:46.391Z,10.92
2023-02-19T06:01:02.622Z,10.89
2023-02-19T06:05:19.063Z,11.00
2023-02-19T06:09:35.362Z,10.79
2023-02-19T06:13:51.715Z,10.93
2023-02-19T06:18:08.070Z,10.76
2023-02-19T06:22:24.588Z,11.04
2023-02-19T06:26:40.844Z,10.57
2023-02-19T06:30:58.688Z,10.73
2023-02-19T06:35:14.933Z,11.01
2023-02-19T06:39:31.210Z,10.98
2023-02-19T06:43:47.467Z,11.20
2023-02-19T06:48:03.963Z,11.11
2023-02-19T06:52:20.263Z,11.06
2023-02-19T06:56:39.853Z,10.90
2023-02-19T07:00:56.232Z,11.12
2023-02-19T07:05:12.538Z,11.20
2023-02-19T07:09:28.865Z,10.43
2023-02-19T07:13:45.735Z,10.48
2023-02-19T07:18:02.080Z,10.29
2023-02-19T07:22:18.397Z,10.30
2023-02-19T07:26:35.099Z,10.49
2023-02-19T07:30:52.203Z,9.95
2023-02-19T07:35:08.720Z,10.61
2023-02-19T07:39:28.175Z,10.47
2023-02-19T07:43:44.456Z,10.65
2023-02-19T07:48:00.861Z,10.44
2023-02-19T07:52:17.158Z,10.60
2023-02-19T07:56:33.512Z,10.63
2023-02-19T08:00:49.845Z,10.22
2023-02-19T08:05:07.055Z,10.40
2023-02-19T08:09:23.389Z,10.39
2023-02-19T08:13:39.656Z,10.53
2023-02-19T08:17:55.998Z,9.94
2023-02-19T08:22:12.869Z,10.07
2023-02-19T08:26:29.179Z,9.69
2023-02-19T08:30:47.418Z,9.81
2023-02-19T08:35:03.914Z,10.07
2023-02-19T08:39:21.183Z,9.78
2023-02-19T08:43:37.891Z,10.01
2023-02-19T08:47:54.288Z,10.15
2023-02-19T08:52:10.529Z,9.54
2023-02-19T08:56:26.852Z,9.66
2023-02-19T09:00:43.188Z,9.85
2023-02-19T09:04:59.574Z,9.34
2023-02-19T09:09:15.776Z,9.27
2023-02-19T09:13:32.157Z,9.46
2023-02-19T09:17:53.020Z,9.30
2023-02-19T09:22:09.605Z,9.27
2023-02-19T09:26:25.860Z,9.57
2023-02-19T09:30:42.135Z,9.50
2023-02-19T09:34:58.530Z,9.27
2023-02-19T09:39:15.345Z,10.20
2023-02-19T09:43:32.231Z,9.66
2023-02-19T09:47:49.052Z,9.64
2023-02-19T09:52:20.268Z,10.26
2023-02-19T09:56:36.571Z,9.43
2023-02-19T10:00:54.406Z,10.20
2023-02-19T10:05:17.356Z,10.41
2023-02-19T10:09:33.765Z,10.73
2023-02-19T10:13:56.538Z,10.35
2023-02-19T10:18:12.917Z,10.77
2023-02-19T10:22:29.910Z,10.83
2023-02-19T10:26:46.189Z,11.12
2023-02-19T10:31:05.297Z,11.26
2023-02-19T10:35:21.629Z,12.24
2023-02-19T10:39:42.554Z,12.21
2023-02-19T10:44:23.271Z,12.05
2023-02-19T10:48:44.688Z,11.20
2023-02-19T10:53:02.329Z,12.36
2023-02-19T10:57:30.261Z,12.72
2023-02-19T11:01:59.043Z,12.39
2023-02-19T11:06:16.789Z,13.01
2023-02-19T11:10:40.478Z,13.17
2023-02-19T11:14:57.173Z,13.56
2023-02-19T11:19:29.958Z,13.34
2023-02-19T11:23:47.191Z,12.48
2023-02-19T11:28:47.745Z,12.96
2023-02-19T11:33:24.829Z,12.60
2023-02-19T11:38:00.829Z,12.08
2023-02-19T11:42:35.298Z,11.97
2023-02-19T11:47:00.464Z,11.92
2023-02-19T11:51:47.632Z,12.04
2023-02-19T11:56:08.578Z,12.36
2023-02-19T12:00:26.072Z,12.81
2023-02-19T12:05:07.095Z,13.30
2023-02-19T12:09:32.299Z,12.60
2023-02-19T12:14:10.152Z,12.73
2023-02-19T12:18:36.122Z,13.07
2023-02-19T12:23:03.558Z,13.24
2023-02-19T12:27:25.619Z,11.97
2023-02-19T12:31:55.749Z,11.40
2023-02-19T12:37:04.634Z,10.93
2023-02-19T12:41:40.830Z,11.01
2023-02-19T12:46:13.832Z,11.44
2023-02-19T12:50:31.639Z,12.40
2023-02-19T12:54:54.821Z,13.09
2023-02-19T12:59:24.683Z,14.32
2023-02-19T13:03:49.580Z,14.41
2023-02-19T13:08:25.202Z,13.54
2023-02-19T13:12:44.745Z,12.50
2023-02-19T13:17:19.245Z,12.35
2023-02-19T13:21:56.379Z,12.36
2023-02-19T13:26:42.507Z,12.47
2023-02-19T13:31:16.940Z,12.48
2023-02-19T13:35:45.413Z,13.31
2023-02-19T13:40:06.637Z,14.06
2023-02-19T13:44:28.418Z,13.99
2023-02-19T13:48:44.973Z,14.79
2023-02-19T13:53:23.595Z,15.40
2023-02-19T13:57:41.942Z,14.83
2023-02-19T14:01:58.180Z,14.09
2023-02-19T14:06:15.338Z,13.65
2023-02-19T14:10:46.658Z,13.35
2023-02-19T14:15:37.190Z,12.91
2023-02-19T14:19:54.353Z,12.93
2023-02-19T14:24:15.424Z,12.41
2023-02-19T14:28:41.446Z,11.87
2023-02-19T14:33:10.095Z,11.92
2023-02-19T14:37:27.169Z,11.63
2023-02-19T14:41:50.747Z,11.39
2023-02-19T14:46:22.048Z,11.05
2023-02-19T14:50:38.476Z,11.42
2023-02-19T14:54:58.425Z,10.94
2023-02-19T14:59:20.629Z,11.01
2023-02-19T15:03:39.061Z,10.62
2023-02-19T15:07:58.118Z,11.25
2023-02-19T15:12:23.467Z,14.15
2023-02-19T15:16:40.536Z,13.51
2023-02-19T15:21:05.901Z,13.31
2023-02-19T15:25:24.065Z,12.70
2023-02-19T15:29:45.247Z,12.33
2023-02-19T15:34:01.592Z,12.72
2023-02-19T15:38:18.293Z,12.59
2023-02-19T15:42:37.422Z,11.40
2023-02-19T15:46:54.181Z,11.06
2023-02-19T15:51:23.881Z,10.99
2023-02-19T15:55:48.353Z,10.80
2023-02-19T16:00:19.878Z,10.86
2023-02-19T16:04:36.122Z,10.80
2023-02-19T16:09:17.181Z,10.82
2023-02-19T16:13:35.035Z,10.67
2023-02-19T16:17:51.696Z,10.92
2023-02-19T16:22:09.824Z,10.94
2023-02-19T16:26:26.355Z,10.66
2023-02-19T16:30:43.296Z,10.96
2023-02-19T16:34:59.548Z,10.26
2023-02-19T16:39:20.204Z,10.46
2023-02-19T16:43:43.812Z,10.34
2023-02-19T16:48:00.157Z,10.23
2023-02-19T16:52:17.298Z,10.17
2023-02-19T16:56:33.708Z,10.11
2023-02-19T17:00:50.138Z,9.26
2023-02-19T17:05:07.074Z,9.50
2023-02-19T17:09:23.439Z,9.35
2023-02-19T17:13:40.079Z,9.84
2023-02-19T17:17:56.348Z,9.31
2023-02-19T17:22:17.055Z,9.12
2023-02-19T17:26:33.761Z,9.07
2023-02-19T17:30:50.004Z,9.23
2023-02-19T17:35:06.675Z,9.18
2023-02-19T17:39:23.571Z,8.96
2023-02-19T17:43:39.954Z,8.78
2023-02-19T17:47:56.272Z,8.54
2023-02-19T17:52:17.321Z,8.70
2023-02-19T17:56:33.619Z,8.29
2023-02-19T18:00:49.924Z,8.06
2023-02-19T18:05:06.563Z,8.22
2023-02-19T18:09:23.362Z,8.17
2023-02-19T18:13:39.696Z,8.60
2023-02-19T18:17:56.654Z,8.26
2023-02-19T18:22:12.969Z,8.33
2023-02-19T18:26:29.311Z,7.66
2023-02-19T18:30:45.774Z,8.05
2023-02-19T18:35:02.764Z,7.89
2023-02-19T18:39:18.981Z,7.84
2023-02-19T18:43:35.244Z,7.39
2023-02-19T18:47:51.756Z,7.72
2023-02-19T18:52:08.190Z,7.95
2023-02-19T18:56:24.483Z,8.14
2023-02-19T19:00:44.257Z,7.70
2023-02-19T19:05:00.682Z,7.36
2023-02-19T19:09:17.017Z,7.60
2023-02-19T19:13:33.353Z,7.30
2023-02-19T19:17:49.810Z,8.14
2023-02-19T19:22:06.373Z,7.97
2023-02-19T19:26:22.675Z,8.31
2023-02-19T19:30:39.024Z,7.68
2023-02-19T19:34:55.403Z,7.96
2023-02-19T19:39:12.172Z,7.72
2023-02-19T19:43:30.096Z,7.67
2023-02-19T19:47:46.849Z,7.82
2023-02-19T19:52:03.749Z,7.92
2023-02-19T19:56:20.144Z,7.51
2023-02-19T20:00:36.404Z,7.68
2023-02-19T20:04:52.728Z,7.59
2023-02-19T20:09:09.355Z,7.87
2023-02-19T20:13:26.706Z,7.42
2023-02-19T20:17:42.896Z,7.81
2023-02-19T20:21:59.209Z,7.33
2023-02-19T20:26:27.912Z,7.67
2023-02-19T20:30:44.206Z,7.33
2023-02-19T20:35:00.538Z,7.27
2023-02-19T20:39:19.343Z,7.42
2023-02-19T20:43:35.597Z,7.14
2023-02-19T20:47:51.901Z,7.34
2023-02-19T20:52:08.540Z,7.27
2023-02-19T20:56:24.796Z,7.28
2023-02-19T21:00:40.991Z,6.73
2023-02-19T21:04:58.073Z,6.70
2023-02-19T21:09:14.334Z,6.44
2023-02-19T21:13:30.601Z,6.72
2023-02-19T21:17:47.490Z,6.76
2023-02-19T21:22:03.761Z,6.35
2023-02-19T21:26:20.177Z,6.58
2023-02-19T21:30:36.637Z,6.72
2023-02-19T21:34:53.446Z,6.41
2023-02-19T21:39:12.279Z,6.31
2023-02-19T21:43:30.154Z,5.84
2023-02-19T21:47:46.519Z,6.56
2023-02-19T21:52:02.751Z,6.13
2023-02-19T21:56:24.327Z,6.25
2023-02-19T22:00:40.587Z,6.20
2023-02-19T22:04:57.905Z,6.35
2023-02-19T22:09:15.198Z,6.37
2023-02-19T22:13:31.430Z,6.07
2023-02-19T22:17:47.679Z,5.90
2023-02-19T22:22:04.555Z,5.91
2023-02-19T22:26:26.226Z,5.72
2023-02-19T22:30:43.237Z,5.54
2023-02-19T22:34:59.504Z,5.14
2023-02-19T22:39:25.170Z,5.48
2023-02-19T22:43:41.483Z,5.37
2023-02-19T22:47:57.810Z,5.40
2023-02-19T22:52:14.264Z,5.61
2023-02-19T22:56:30.679Z,5.59
2023-02-19T23:00:47.093Z,5.63
2023-02-19T23:05:03.433Z,5.80
2023-02-19T23:09:21.505Z,6.17
2023-02-19T23:13:37.984Z,5.97
2023-02-19T23:17:54.220Z,5.98
2023-02-19T23:22:10.512Z,5.87
2023-02-19T23:26:26.965Z,6.17
2023-02-19T23:30:43.317Z,6.06
2023-02-19T23:34:59.648Z,5.97
2023-02-19T23:39:19.136Z,5.94
2023-02-19T23:43:35.507Z,5.68
2023-02-19T23:47:51.738Z,5.92
2023-02-19T23:52:08.227Z,5.86
2023-02-19T23:56:28.906Z,5.56
